Allise P — A8JE7 — position and weather

sailwx.info

Track history (hours):
 
Tides and Currents Weather Stations Pressure Air Temp Water Temp Dewpoint Dewpoint Depression Visibility Wind Speed Wind Dir Waves Ship Positions

Allise P

Last reported at 2017-Nov-16 03:04 UTC. Time now 2017-Nov-17 23:19 UTC.
Position N 22°08' E 120°20'.

Length 294 m; draft 12.4 m.

Type: Cargo ship. MMSI: 636091079.

Date/timePositionNaut miles runAvg speedWind from/ knotsBaromVisibWave heightAir tempDewpointWater temp
2017-Nov-16 03:04N 22°08' E 120°20'518.4
2017-Nov-16 02:47N 22°12' E 120°17'518.2
2017-Nov-16 02:30N 22°17' E 120°16'917.9
2017-Nov-16 02:00N 22°25' E 120°13'714.7
2017-Nov-16 01:30N 22°33' E 120°14'510.0
2017-Nov-16 01:01N 22°33' E 120°19'1 2.9
2017-Nov-16 00:30N 22°34' E 120°18'0 0.1
2017-Nov-16 00:00N 22°34' E 120°18'0 0.0
2017-Nov-15 22:10N 22°34' E 120°18'0 0.0
2017-Nov-15 21:40N 22°34' E 120°18'0 0.0
2017-Nov-15 15:18N 22°34' E 120°18'0 1.1
2017-Nov-15 15:00N 22°34' E 120°19'2 4.0
2017-Nov-15 14:30N 22°33' E 120°17'1 2.5
2017-Nov-15 14:00N 22°32' E 120°16'4 9.0
2017-Nov-15 13:30N 22°33' E 120°11'918.3
2017-Nov-15 13:00N 22°37' E 120°02'815.3
2017-Nov-15 12:30N 22°42' E 119°56'917.7
2017-Nov-15 12:00N 22°50' E 119°55'51516.8
2017-Nov-14 05:23N 31°04' E 122°43'1714.8
2017-Nov-14 04:14N 31°06' E 122°23'414.0
2017-Nov-14 03:55N 31°06' E 122°18'614.2
2017-Nov-14 03:30N 31°10' E 122°12'714.2
2017-Nov-14 03:00N 31°14' E 122°05'713.3
2017-Nov-14 02:30N 31°15' E 121°58'612.1
2017-Nov-14 02:00N 31°16' E 121°51'611.8
2017-Nov-14 01:30N 31°19' E 121°45'4 7.4
2017-Nov-14 01:00N 31°20' E 121°40'0 0.9
2017-Nov-14 00:30N 31°20' E 121°40'0 0.1
2017-Nov-13 23:58N 31°20' E 121°40'0 0.1
2017-Nov-13 23:28N 31°20' E 121°40'0 0.1
2017-Nov-13 22:58N 31°20' E 121°40'0 0.0
2017-Nov-13 22:25N 31°20' E 121°40'0 0.0
2017-Nov-13 21:58N 31°20' E 121°40'  
Track history (hours):
 
Tides and Currents Weather Stations Pressure Air Temp Water Temp Dewpoint Dewpoint Depression Visibility Wind Speed Wind Dir Waves Ship Positions

Allise P

Last reported at 2017-Nov-16 03:04 UTC. Time now 2017-Nov-17 23:19 UTC.
Position N 22°08' E 120°20'.

Length 294 m; draft 12.4 m.

Type: Cargo ship. MMSI: 636091079.

Date/timePositionNaut miles runAvg speedWind from/ knotsBaromVisibWave heightAir tempDewpointWater temp
2017-Nov-16 03:04N 22°08' E 120°20'518.4
2017-Nov-16 02:47N 22°12' E 120°17'518.2
2017-Nov-16 02:30N 22°17' E 120°16'917.9
2017-Nov-16 02:00N 22°25' E 120°13'714.7
2017-Nov-16 01:30N 22°33' E 120°14'510.0
2017-Nov-16 01:01N 22°33' E 120°19'1 2.9
2017-Nov-16 00:30N 22°34' E 120°18'0 0.1
2017-Nov-16 00:00N 22°34' E 120°18'0 0.0
2017-Nov-15 22:10N 22°34' E 120°18'0 0.0
2017-Nov-15 21:40N 22°34' E 120°18'0 0.0
2017-Nov-15 15:18N 22°34' E 120°18'0 1.1
2017-Nov-15 15:00N 22°34' E 120°19'2 4.0
2017-Nov-15 14:30N 22°33' E 120°17'1 2.5
2017-Nov-15 14:00N 22°32' E 120°16'4 9.0
2017-Nov-15 13:30N 22°33' E 120°11'918.3
2017-Nov-15 13:00N 22°37' E 120°02'815.3
2017-Nov-15 12:30N 22°42' E 119°56'917.7
2017-Nov-15 12:00N 22°50' E 119°55'51516.8
2017-Nov-14 05:23N 31°04' E 122°43'1714.8
2017-Nov-14 04:14N 31°06' E 122°23'414.0
2017-Nov-14 03:55N 31°06' E 122°18'614.2
2017-Nov-14 03:30N 31°10' E 122°12'714.2
2017-Nov-14 03:00N 31°14' E 122°05'713.3
2017-Nov-14 02:30N 31°15' E 121°58'612.1
2017-Nov-14 02:00N 31°16' E 121°51'611.8
2017-Nov-14 01:30N 31°19' E 121°45'4 7.4
2017-Nov-14 01:00N 31°20' E 121°40'0 0.9
2017-Nov-14 00:30N 31°20' E 121°40'0 0.1
2017-Nov-13 23:58N 31°20' E 121°40'0 0.1
2017-Nov-13 23:28N 31°20' E 121°40'0 0.1
2017-Nov-13 22:58N 31°20' E 121°40'0 0.0
2017-Nov-13 22:25N 31°20' E 121°40'0 0.0
2017-Nov-13 21:58N 31°20' E 121°40'  

Dump ship's entire track history